Bookmark and Share
Track history (hours):
 

F/V Mare Liberum

Last reported at 2014-Apr-12 11:30 UTC. Time now 2014-Apr-16 16:12 UTC.
Position N 46°33' W 002°13'.

Length 21 m.

Type: Fishing. MMSI: 227426000.

NotesDate/timePositionNaut miles runAvg speedWind from/ knotsBaromVisibWave heightAir tempDewpointWater temp
2014-Apr-12 11:30N 46°33' W 002°13'9 9.7
2014-Apr-12 10:33N 46°24' W 002°10'12 1.4
2014-Apr-12 02:33N 46°12' W 002°08'1 1.0
2014-Apr-12 01:33N 46°13' W 002°08'0 0.0
2014-Apr-11 21:25N 46°13' W 002°08'0 0.0
2014-Apr-11 20:30N 46°13' W 002°08'6 0.2
2014-Apr-10 09:26N 46°09' W 002°13'8 9.5
2014-Apr-10 08:32N 46°12' W 002°24'1 1.4
2014-Apr-10 07:32N 46°12' W 002°26'1 0.6
2014-Apr-10 06:05N 46°12' W 002°28'1 2.0
2014-Apr-10 05:21N 46°12' W 002°25'1 0.8
2014-Apr-10 04:33N 46°13' W 002°26'2 1.6
2014-Apr-10 03:31N 46°13' W 002°29'  
2014-Apr-07 11:27N 46°17' W 001°60'8 9.3
2014-Apr-07 10:33N 46°23' W 001°53'7 7.5
2014-Apr-07 09:33N 46°30' W 001°48'0 0.0
2014-Apr-07 08:33N 46°30' W 001°48'0 0.0
2014-Apr-07 07:33N 46°30' W 001°48'0 0.0
2014-Apr-07 06:33N 46°30' W 001°48'0 0.0
2014-Apr-07 05:33N 46°30' W 001°48'0 0.0
2014-Apr-07 04:33N 46°30' W 001°48'0 0.0
2014-Apr-07 03:34N 46°30' W 001°48'0 0.0
2014-Apr-07 02:33N 46°30' W 001°48'0 0.0
2014-Apr-07 01:33N 46°30' W 001°48'0 0.0
2014-Apr-07 00:33N 46°30' W 001°48'0 0.0
2014-Apr-06 23:33N 46°30' W 001°48'0 0.0
2014-Apr-06 22:33N 46°30' W 001°48'0 0.0
2014-Apr-06 21:33N 46°30' W 001°48'0 0.0
2014-Apr-06 20:33N 46°30' W 001°48'0 0.0
2014-Apr-06 19:33N 46°30' W 001°48'0 0.0
2014-Apr-06 18:33N 46°30' W 001°48'0 0.0
2014-Apr-06 17:33N 46°30' W 001°48'0 0.0
2014-Apr-06 16:33N 46°30' W 001°48'0 0.0
2014-Apr-06 15:33N 46°30' W 001°48'0 0.0
2014-Apr-06 14:33N 46°30' W 001°48'0 0.0
2014-Apr-06 13:33N 46°30' W 001°48'0 0.0
2014-Apr-06 12:33N 46°30' W 001°48'0 0.0
2014-Apr-06 11:33N 46°30' W 001°48'0 0.0
2014-Apr-06 10:33N 46°30' W 001°48'0 0.0
2014-Apr-06 09:33N 46°30' W 001°48'0 0.0
2014-Apr-06 08:33N 46°30' W 001°48'2 1.9
2014-Apr-06 07:33N 46°28' W 001°47'10 9.6
2014-Apr-06 06:33N 46°18' W 001°47'4 3.6
2014-Apr-06 05:33N 46°15' W 001°49'1 1.4
2014-Apr-06 04:33N 46°14' W 001°48'1 0.6
2014-Apr-06 03:33N 46°14' W 001°49'1 1.0
2014-Apr-06 02:33N 46°14' W 001°47'0 0.3
2014-Apr-06 01:33N 46°14' W 001°47'2 1.5
2014-Apr-06 00:33N 46°15' W 001°48'0 0.3
2014-Apr-05 23:33N 46°15' W 001°47'1 0.6
2014-Apr-05 22:33N 46°15' W 001°47'0 0.1
2014-Apr-05 21:33N 46°15' W 001°47'0 0.1
2014-Apr-05 20:33N 46°15' W 001°47'0 0.1
2014-Apr-05 19:33N 46°15' W 001°47'0 0.0
2014-Apr-05 18:33N 46°15' W 001°47'0 0.0
2014-Apr-05 17:32N 46°15' W 001°47'0 0.0
2014-Apr-05 16:32N 46°15' W 001°47'0 0.0
2014-Apr-05 15:33N 46°15' W 001°47'0 0.0
2014-Apr-05 14:33N 46°15' W 001°47'0 0.4
2014-Apr-05 13:33N 46°14' W 001°47'1 0.7
2014-Apr-05 12:33N 46°14' W 001°47'1 1.4
2014-Apr-05 11:33N 46°14' W 001°49'7 6.2
2014-Apr-05 10:29N 46°11' W 001°58'7 0.7
2014-Apr-05 00:33N 46°10' W 002°08'0 0.0
2014-Apr-04 23:33N 46°10' W 002°08'  

Dump ship's entire track history

sailing weather and tide predictions

F/V Mare Liberum — FVHW — position and weather